Main page
METAR-TAF:

METAR-TAF

Airports :

Kulob Airport

Kulob, Tajikistan

latitude: 37-59-18N, longitude: 069-48-18E, elevation: 699 m

Current weather observation

The report was made 31 minutes ago, at 06:00 UTC
Wind 2 kt from variable directions
Temperature 9°C
Humidity 61%
Pressure 1032 hPa
Visibility 10 km or more
Scattered clouds at a height of 4000 ft
Broken clouds at a height of 9900 ft

METAR: UTDK 170600Z VRB01MPS 9999 SCT040 BKN099 09/02 Q1032 R01/09//70 RMK QFE716/0955

Time: 11:31 (06:31 UTC)

Forecast

The report was made 3 hours and 31 minutes ago, at 03:00 UTC
Forecast valid from 17 at 04 UTC to 17 at 13 UTC
Wind 4 kt from variable directions
Visibility: 6000 m
Scattered clouds at a height of 3000 ft, Cumulonimbus.
Broken clouds at a height of 6000 ft
Overcast at a height of 8000 ft
Temporary
from 17 at 04 UTC to 17 at 13 UTC
Wind 10 kt from the Southwest
Visibility: 3100 m
light rain showers, mist

TAF: UTDK 170300Z 1704/1713 VRB02MPS 6000 SCT030CB BKN060 OVC080 TEMPO 1704/1713 23005MPS 3100 -SHRA BR

Weather observations and forecasts of more than 4000 airports (METAR and TAF reports).

The available stations are represented by yellow and red dots on the map.

Hover mouse over dot to see the name of the station.

Then click to see weather observations and forecasts.

To change the map : click on the green buttons with a black cross to zoom in, on the green button with a dash to zoom out, or on the green arrows for adjacent maps.


METAR-TAF: